Latest Weather Observations for Meekatharra

IDW60801

Issued at 2:32 pm WST Sunday 1 March 2015 (issued every 30 minutes, with the page automatically refreshed every 10 minutes)

About weather observations | Map of weather stations | Latest weather observations for WA | Other Formats
Station Details ID: 007045 Name: MEEKATHARRA AIRPORT Lat: -26.61 Lon: 118.54 Height: 517.0 m
Data from the previous 72 hours. | See also: Recent months at Meekatharra
Date/Time
WST
Temp
°C
App
Temp
°C
Dew
Point
Rel
Hum
%
Delta-T
°C
Wind Press
QNH
hPa
Press
MSL
hPa
Rain
since 9 am
mm
Dir
 
Spd
km/h
Gust
km/h
Spd
kts
Gust
kts
01/02:30pm 28.8 29.8 19.5 57 6.2 NNE 13 22 7 12 1008.7 - 0.2
01/02:00pm 28.9 29.9 19.4 56 6.3 N 13 20 7 11 1009.2 - 0.2
01/01:30pm 28.1 30.0 19.8 60 5.5 NE 9 17 5 9 1009.4 - 0.2
01/01:00pm 27.8 29.3 19.7 61 5.4 NE 11 17 6 9 1009.7 - 0.2
01/12:30pm 27.6 29.3 20.1 63 5.0 NE 11 17 6 9 1010.2 - 0.2
01/12:00pm 27.4 28.2 19.9 63 5.0 NNE 15 20 8 11 1010.4 1006.7 0.2
01/11:30am 26.6 27.8 20.0 67 4.4 NE 13 20 7 11 1011.0 - 0.2
01/11:00am 26.0 27.0 20.3 71 3.8 NE 15 20 8 11 1011.4 - 0.2
01/10:30am 25.3 25.6 19.7 71 3.7 NE 17 24 9 13 1012.0 - 0.0
01/10:00am 24.6 25.3 20.4 77 2.8 NE 17 24 9 13 1012.5 - 0.0
01/09:30am 24.2 24.9 20.4 79 2.5 ENE 17 24 9 13 1012.6 - 0.0
01/09:00am 23.7 24.8 20.4 82 2.2 ENE 15 20 8 11 1012.7 1009.0 3.6
01/08:00am 23.1 24.7 20.8 87 1.5 NNE 13 20 7 11 1011.7 - 3.6
01/07:30am 22.7 24.4 20.9 89 1.2 NNE 13 19 7 10 1011.8 - 3.6
01/07:00am 22.5 23.3 20.7 89 1.2 NE 17 24 9 13 1011.7 - 3.6
01/06:30am 22.5 22.8 20.5 88 1.3 NE 19 28 10 15 1011.5 - 3.6
01/05:30am 22.4 22.5 21.1 92 0.9 NE 22 32 12 17 1011.4 - 3.6
01/05:00am 22.5 23.1 21.3 93 0.8 NE 20 30 11 16 1011.4 - 3.6
01/04:30am 22.4 23.6 21.4 94 0.7 NE 17 24 9 13 1011.4 - 3.4
01/04:00am 22.5 23.7 21.5 94 0.7 NE 17 22 9 12 1011.3 - 3.4
01/03:30am 22.5 24.1 21.5 94 0.7 NE 15 24 8 13 1010.9 - 3.0
01/03:00am 22.7 23.9 21.5 93 0.8 NNE 17 24 9 13 1010.9 1007.2 3.0
01/02:43am 22.8 24.6 21.9 95 0.6 NNE 15 20 8 11 1011.0 - 2.8
01/02:30am 22.9 24.7 21.9 94 0.7 NNE 15 22 8 12 1011.0 - 2.8
01/02:28am 22.9 24.7 21.9 94 0.7 NNE 15 22 8 12 1011.1 - 2.8
01/02:00am 22.9 25.1 21.9 94 0.7 NE 13 19 7 10 1011.2 - 2.6
01/01:30am 22.9 24.6 21.6 92 0.9 NE 15 22 8 12 1010.9 - 2.4
01/01:00am 22.7 24.0 21.7 94 0.7 NE 17 24 9 13 1011.1 - 2.2
01/12:30am 22.9 24.0 21.3 91 1.1 NE 17 26 9 14 1011.7 - 1.8
01/12:01am 23.2 23.3 21.1 88 1.4 NNE 22 33 12 18 1011.5 - 1.6
01/12:00am 23.2 23.4 21.3 89 1.3 NNE 22 33 12 18 1011.6 1008.0 1.6
 
Date/Time
WST
Temp
°C
App
Temp
°C
Dew
Point
Rel
Hum
%
Delta-T
°C
Wind Press
QNH
hPa
Press
MSL
hPa
Rain
since 9 am
mm
Dir
 
Spd
km/h
Gust
km/h
Spd
kts
Gust
kts
28/11:46pm 23.2 24.2 22.2 94 0.7 ENE 20 30 11 16 1011.4 - 1.6
28/11:30pm 23.4 24.4 22.1 92 0.9 NE 20 30 11 16 1011.4 - 1.6
28/11:00pm 23.7 26.0 22.8 95 0.6 NE 15 20 8 11 1012.0 - 1.2
28/10:30pm 24.1 26.0 22.8 92 0.9 ENE 17 26 9 14 1011.8 - 0.4
28/10:00pm 24.3 26.2 22.1 87 1.5 ENE 15 19 8 10 1011.5 - 0.2
28/09:30pm 25.0 24.7 21.1 79 2.6 NE 24 35 13 19 1012.0 - 0.2
28/09:00pm 26.8 26.9 20.4 68 4.3 E 20 26 11 14 1011.3 1007.2 0.2
28/08:30pm 27.1 26.6 19.2 62 5.2 E 20 24 11 13 1011.1 - 0.2
28/08:00pm 26.9 27.5 18.6 60 5.4 ESE 13 17 7 9 1010.5 - 0.2
28/07:30pm 26.4 27.3 19.3 65 4.7 ESE 13 15 7 8 1009.8 - 0.2
28/07:00pm 25.9 25.2 18.7 64 4.7 ESE 20 30 11 16 1009.6 - 0.2
28/06:30pm 26.2 24.5 19.7 67 4.3 ESE 28 41 15 22 1009.5 - 0.2
28/06:00pm 27.9 27.1 20.8 65 4.8 SE 26 39 14 21 1009.1 1004.9 0.2
28/05:39pm 29.0 26.7 21.2 62 5.3 SE 35 54 19 29 1009.0 - 0.2
28/05:37pm 29.7 26.6 20.4 57 6.3 SE 37 54 20 29 1009.0 - 0.2
28/05:30pm 31.7 32.8 19.6 48 8.1 SE 13 17 7 9 1008.8 - 0.2
28/05:00pm 32.0 33.6 19.1 46 8.6 SE 9 15 5 8 1008.0 - 0.2
28/04:30pm 31.9 31.6 19.2 47 8.5 S 19 24 10 13 1008.4 - 0.2
28/04:00pm 32.4 32.9 18.3 43 9.3 ESE 13 19 7 10 1008.7 - 0.2
28/03:30pm 31.6 32.9 19.3 48 8.2 E 11 15 6 8 1009.3 - 0.2
28/03:00pm 31.0 31.4 18.9 48 8.0 E 15 20 8 11 1009.3 1005.1 0.2
28/02:30pm 30.6 31.5 20.9 56 6.6 NE 17 20 9 11 1010.0 - 0.2
28/02:00pm 31.3 31.2 19.5 49 7.9 E 19 26 10 14 1010.3 - 0.2
28/01:30pm 30.9 31.9 21.1 56 6.7 E 17 22 9 12 1010.9 - 0.2
28/01:00pm 30.0 30.4 20.9 58 6.2 ENE 20 28 11 15 1011.2 - 0.2
28/12:30pm 30.2 30.8 21.3 59 6.1 NE 20 26 11 14 1011.6 - 0.2
28/12:00pm 31.7 31.8 20.3 50 7.7 ENE 20 28 11 15 1012.1 1007.9 0.2
28/11:30am 31.6 31.8 20.2 50 7.7 ESE 19 26 10 14 1012.4 - 0.2
28/11:00am 29.8 30.5 20.5 57 6.3 E 17 22 9 12 1012.7 - 0.2
28/10:30am 29.6 31.8 21.9 63 5.3 E 13 19 7 10 1012.9 - 0.2
28/10:00am 28.8 31.0 21.9 66 4.7 E 13 19 7 10 1013.1 - 0.2
28/09:30am 27.9 30.6 22.2 71 3.9 ENE 11 17 6 9 1013.1 - 0.0
28/09:00am 27.2 30.2 21.9 73 3.6 E 9 15 5 8 1013.0 1008.9 13.6
28/08:30am 26.3 28.3 21.6 75 3.2 E 13 15 7 8 1012.7 - 13.6
28/08:00am 26.1 28.7 22.0 78 2.8 E 11 15 6 8 1012.6 - 13.6
28/07:30am 25.6 28.3 22.1 81 2.4 ESE 11 15 6 8 1012.4 - 13.6
28/07:00am 25.1 28.8 22.6 86 1.7 ESE 7 11 4 6 1012.1 - 13.6
28/06:30am 24.8 28.6 22.8 89 1.4 ESE 7 9 4 5 1011.4 - 13.6
28/06:00am 24.8 28.3 22.8 89 1.4 ESE 9 11 5 6 1011.0 1006.8 13.6
28/05:30am 24.9 27.9 22.7 87 1.5 ESE 11 13 6 7 1010.8 - 13.6
28/05:00am 24.8 28.4 23.1 90 1.2 ESE 9 11 5 6 1010.5 - 13.6
28/04:30am 24.7 28.3 23.0 90 1.2 ESE 9 11 5 6 1010.2 - 13.6
28/04:00am 24.8 28.7 22.9 89 1.3 SE 7 11 4 6 1010.1 - 13.6
28/03:30am 24.8 28.0 23.1 90 1.2 SE 11 13 6 7 1009.6 - 13.6
28/03:00am 25.0 28.3 22.5 86 1.7 SSE 9 11 5 6 1009.6 1005.5 13.6
28/02:30am 25.1 28.1 23.4 90 1.2 S 13 17 7 9 1009.7 - 13.6
28/02:00am 25.2 28.5 22.6 85 1.8 S 9 13 5 7 1009.6 - 13.6
28/01:30am 25.5 27.8 22.7 84 1.9 S 15 19 8 10 1009.7 - 13.6
28/01:00am 26.1 29.9 22.8 82 2.3 NE 7 11 4 6 1009.7 - 13.6
28/12:30am 25.9 29.2 21.8 78 2.8 NE 7 9 4 5 1010.0 - 13.6
28/12:00am 26.0 28.7 21.4 76 3.1 NNE 9 11 5 6 1010.0 1005.8 13.6
 
Date/Time
WST
Temp
°C
App
Temp
°C
Dew
Point
Rel
Hum
%
Delta-T
°C
Wind Press
QNH
hPa
Press
MSL
hPa
Rain
since 9 am
mm
Dir
 
Spd
km/h
Gust
km/h
Spd
kts
Gust
kts
27/11:30pm 25.1 28.8 22.2 84 2.0 NNE 6 9 3 5 1010.4 - 13.6
27/11:00pm 25.1 29.0 21.9 82 2.2 N 4 9 2 5 1010.9 - 13.6
27/10:30pm 24.3 25.9 22.2 88 1.4 E 17 24 9 13 1011.0 - 13.6
27/10:00pm 25.3 27.5 21.8 81 2.4 S 13 17 7 9 1011.4 - 13.6
27/09:30pm 25.2 27.5 22.1 83 2.1 W 13 24 7 13 1011.7 - 13.6
27/09:00pm 24.1 26.5 22.2 89 1.3 N 13 17 7 9 1010.8 1006.6 13.4
27/08:30pm 23.7 24.1 21.8 89 1.3 NE 22 33 12 18 1010.3 - 13.2
27/08:15pm 22.9 22.3 22.6 98 0.2 ENE 30 43 16 23 1010.4 - 13.2
27/08:00pm 23.1 23.2 22.5 96 0.4 NE 26 37 14 20 1010.7 - 13.2
27/07:30pm 24.0 25.6 22.8 93 0.8 NNE 19 26 10 14 1010.4 - 9.0
27/07:25pm 24.4 26.3 22.8 91 1.1 NNE 17 26 9 14 1010.4 - 7.0
27/07:22pm 24.5 26.1 22.8 90 1.2 N 19 26 10 14 1010.3 - 6.6
27/07:11pm 24.5 23.8 22.5 89 1.4 NNE 30 48 16 26 1009.4 - 6.0
27/07:00pm 24.2 23.5 23.5 96 0.5 NNE 33 50 18 27 1008.5 - 5.6
27/06:49pm 25.6 24.4 22.7 84 2.0 NNE 33 54 18 29 1008.6 - 1.0
27/06:45pm 27.6 25.2 21.1 67 4.4 NNE 35 54 19 29 1008.7 - 0.0
27/06:43pm 27.8 25.1 21.2 67 4.5 NNE 37 54 20 29 1008.6 - 0.0
27/06:30pm 30.3 27.2 19.7 53 7.1 NE 35 54 19 29 1007.3 - 0.0
27/06:27pm 31.2 28.6 19.6 50 7.8 ENE 32 52 17 28 1007.3 - 0.0
27/06:26pm 32.7 30.7 19.1 44 9.1 ENE 28 41 15 22 1007.3 - 0.0
27/06:00pm 35.2 35.6 18.2 36 11.3 SSW 13 20 7 11 1006.3 1002.1 0.0
27/05:30pm 36.2 35.4 17.0 32 12.6 WSW 17 24 9 13 1005.9 - 0.0
27/05:00pm 36.9 36.0 16.8 30 13.2 SW 17 26 9 14 1005.7 - 0.0
27/04:30pm 36.7 35.4 15.9 29 13.4 NW 17 26 9 14 1005.6 - 0.0
27/04:00pm 36.7 35.8 16.9 31 13.0 WSW 17 26 9 14 1005.6 - 0.0
27/03:30pm 36.3 36.6 17.0 32 12.6 NW 11 20 6 11 1006.1 - 0.0
27/03:00pm 35.4 36.2 17.3 34 11.9 NNW 9 17 5 9 1006.5 1002.3 0.0
27/02:30pm 35.9 36.2 17.0 32 12.4 WNW 11 17 6 9 1006.9 - 0.0
27/02:00pm 36.0 36.7 17.1 32 12.4 WNW 9 15 5 8 1007.3 - 0.0
27/01:30pm 35.4 35.4 17.3 34 11.9 NNW 13 22 7 12 1007.6 - 0.0
27/01:00pm 34.8 36.2 18.6 38 10.8 N 9 17 5 9 1008.1 - 0.0
27/12:30pm 34.8 36.3 18.8 39 10.7 N 9 20 5 11 1008.6 - 0.0
27/12:00pm 34.7 35.1 19.1 39 10.5 N 15 24 8 13 1009.1 1004.9 0.0
27/11:30am 33.3 35.6 19.8 45 9.1 N 7 13 4 7 1009.4 - 0.0
27/11:00am 32.8 33.5 19.7 46 8.8 N 15 22 8 12 1009.8 - 0.0
27/10:30am 32.7 33.9 19.8 46 8.7 NNW 13 17 7 9 1010.0 - 0.0
27/10:00am 31.4 33.7 20.7 53 7.3 NNW 9 15 5 8 1010.2 - 0.0
27/09:30am 30.5 33.0 21.1 57 6.4 NNW 9 13 5 7 1010.4 - 0.0
27/09:00am 30.3 33.4 21.4 59 6.1 NNW 7 13 4 7 1010.3 1006.1 2.8
27/08:30am 29.5 31.5 21.5 62 5.5 NNW 13 20 7 11 1009.8 - 2.8
27/08:00am 29.2 32.0 20.9 61 5.6 SSW 7 11 4 6 1009.5 - 2.6
27/07:30am 28.3 31.0 20.6 63 5.2 SSW 7 9 4 5 1009.4 - 2.6
27/07:00am 28.6 31.0 20.8 62 5.3 SSW 9 13 5 7 1009.3 - 2.6
27/06:30am 27.0 30.6 23.0 79 2.8 SSW 9 11 5 6 1009.1 - 2.6
27/06:00am 26.8 30.5 22.3 76 3.1 SSW 6 9 3 5 1009.1 1004.9 2.6
27/05:30am 26.9 30.4 22.1 75 3.3 SSW 7 7 4 4 1008.7 - 2.6
27/05:00am 27.1 30.0 21.8 73 3.6 SSW 9 11 5 6 1008.5 - 2.6
27/04:30am 27.0 30.7 22.5 76 3.1 SSW 7 11 4 6 1008.1 - 2.6
27/04:00am 27.0 31.0 22.8 78 2.9 SSW 6 9 3 5 1008.0 - 2.6
27/03:30am 27.1 31.0 22.6 76 3.1 SSW 6 7 3 4 1007.7 - 2.6
27/03:00am 27.1 30.9 22.8 77 3.0 SSW 7 9 4 5 1007.3 1003.1 2.6
27/02:30am 27.3 30.4 22.1 73 3.6 SSW 9 11 5 6 1007.3 - 2.6
27/02:00am 27.6 29.3 21.7 70 4.0 SW 15 20 8 11 1007.2 - 2.6
27/01:30am 27.8 30.6 22.3 72 3.8 W 11 15 6 8 1007.3 - 2.6
27/01:00am 27.8 31.0 22.4 72 3.7 WNW 9 15 5 8 1007.2 - 2.6
27/12:30am 27.8 31.6 22.4 72 3.7 NW 6 7 3 4 1007.1 - 2.6
27/12:00am 27.9 31.4 22.2 71 3.9 W 7 9 4 5 1007.3 1003.1 2.6
 
Date/Time
WST
Temp
°C
App
Temp
°C
Dew
Point
Rel
Hum
%
Delta-T
°C
Wind Press
QNH
hPa
Press
MSL
hPa
Rain
since 9 am
mm
Dir
 
Spd
km/h
Gust
km/h
Spd
kts
Gust
kts
26/11:30pm 27.7 32.7 22.5 73 3.6 CALM 0 0 0 0 1007.9 - 2.6
26/11:00pm 28.0 31.2 21.6 68 4.4 W 7 9 4 5 1008.1 - 2.6
26/10:30pm 28.4 30.5 21.0 64 5.0 WNW 11 15 6 8 1008.2 - 2.6
26/10:00pm 28.1 30.4 21.3 66 4.6 WNW 11 15 6 8 1008.6 - 2.6
26/09:30pm 27.2 28.7 21.3 70 4.0 WNW 15 20 8 11 1008.7 - 2.6
26/09:00pm 27.6 28.1 20.0 63 5.1 WNW 17 22 9 12 1008.5 1004.3 2.4
26/08:30pm 27.5 28.6 21.2 68 4.3 NW 17 26 9 14 1008.2 - 2.2
26/08:00pm 28.3 30.0 20.9 64 5.0 N 13 20 7 11 1008.6 - 1.8
26/07:30pm 28.0 29.2 20.6 64 5.0 NE 15 19 8 10 1007.3 - 1.8
26/07:00pm 28.3 27.7 20.4 62 5.3 N 24 33 13 18 1007.5 - 1.8
26/06:30pm 27.4 27.8 21.8 71 3.8 N 22 33 12 18 1007.3 - 1.8
26/06:19pm 26.3 29.2 22.4 79 2.7 NE 11 19 6 10 1007.1 - 1.8
26/06:05pm 26.2 24.8 22.3 79 2.7 N 33 52 18 28 1006.7 - 1.8
26/06:00pm 26.0 23.8 22.2 79 2.6 N 37 52 20 28 1006.8 1002.6 1.4
26/05:55pm 27.6 25.4 22.1 72 3.8 NNW 37 54 20 29 1006.3 - 0.0
26/05:42pm 32.1 29.6 18.0 43 9.3 NNW 28 46 15 25 1006.1 - 0.0
26/05:41pm 32.4 30.9 17.6 41 9.7 NNW 22 39 12 21 1005.9 - 0.0
26/05:30pm 31.5 27.6 19.6 49 8.0 N 39 57 21 31 1005.1 - 0.0
26/05:26pm 31.8 27.7 19.2 47 8.4 N 39 57 21 31 1005.2 - 0.0
26/05:25pm 32.3 27.6 18.6 44 9.1 N 41 57 22 31 1005.2 - 0.0
26/05:00pm 37.4 33.5 14.5 25 14.6 NNW 28 41 15 22 1004.9 - 0.0
26/04:30pm 37.7 35.4 14.0 24 15.0 NW 19 24 10 13 1004.9 - 0.0
26/04:00pm 37.3 34.2 15.7 27 13.9 WSW 26 35 14 19 1004.9 - 0.0
26/03:30pm 39.5 36.6 13.9 22 16.2 NNW 22 33 12 18 1004.8 - 0.0
26/03:00pm 38.8 36.2 13.7 22 15.9 NW 20 39 11 21 1005.1 1000.9 0.0

Other Formats:

Comma delimited format used in spreadsheet applications
http://www.bom.gov.au/fwo/IDW60801/IDW60801.94430.axf

JavaScript Object Notation format (JSON) in row-major order
http://www.bom.gov.au/fwo/IDW60801/IDW60801.94430.json